createdAt,value
2023-02-15T00:00:12.340Z,12.48
2023-02-15T00:02:41.222Z,12.93
2023-02-15T00:05:10.400Z,12.50
2023-02-15T00:07:38.601Z,11.45
2023-02-15T00:10:09.732Z,11.50
2023-02-15T00:12:37.956Z,11.88
2023-02-15T00:15:06.544Z,11.10
2023-02-15T00:17:34.821Z,10.38
2023-02-15T00:20:03.188Z,11.02
2023-02-15T00:22:31.407Z,10.55
2023-02-15T00:24:59.605Z,10.65
2023-02-15T00:27:29.330Z,10.07
2023-02-15T00:29:57.605Z,10.38
2023-02-15T00:32:25.838Z,10.32
2023-02-15T00:34:53.996Z,9.23
2023-02-15T00:37:22.260Z,10.18
2023-02-15T00:39:50.568Z,9.73
2023-02-15T00:42:19.172Z,9.95
2023-02-15T00:44:48.727Z,9.63
2023-02-15T00:47:17.089Z,9.23
2023-02-15T00:49:45.495Z,9.13
2023-02-15T00:52:14.068Z,9.43
2023-02-15T00:54:42.272Z,9.07
2023-02-15T00:57:10.749Z,9.27
2023-02-15T00:59:38.940Z,9.45
2023-02-15T01:02:08.567Z,9.18
2023-02-15T01:04:36.979Z,9.13
2023-02-15T01:07:05.177Z,9.23
2023-02-15T01:09:35.109Z,9.50
2023-02-15T01:12:05.043Z,9.65
2023-02-15T01:14:33.257Z,8.90
2023-02-15T01:17:01.533Z,9.43
2023-02-15T01:19:31.049Z,9.35
2023-02-15T01:22:01.408Z,9.68
2023-02-15T01:24:29.689Z,9.02
2023-02-15T01:26:58.098Z,9.30
2023-02-15T01:29:28.624Z,10.13
2023-02-15T01:31:56.959Z,9.48
2023-02-15T01:34:25.192Z,8.75
2023-02-15T01:36:54.767Z,9.45
2023-02-15T01:39:23.052Z,8.23
2023-02-15T01:41:53.180Z,8.88
2023-02-15T01:44:50.770Z,8.68
2023-02-15T01:47:24.050Z,8.70
2023-02-15T01:49:59.947Z,8.20
2023-02-15T01:52:30.608Z,7.55
2023-02-15T01:55:00.395Z,7.97
2023-02-15T01:57:30.164Z,7.88
2023-02-15T02:00:03.393Z,7.93
2023-02-15T02:02:41.688Z,7.53
2023-02-15T02:05:10.164Z,7.50
2023-02-15T02:07:43.117Z,7.72
2023-02-15T02:10:15.870Z,7.30
2023-02-15T02:12:47.314Z,6.90
2023-02-15T02:15:16.165Z,7.25
2023-02-15T02:18:05.595Z,7.40
2023-02-15T02:21:00.976Z,7.30
2023-02-15T02:24:00.105Z,7.13
2023-02-15T02:26:58.495Z,7.13
2023-02-15T02:29:57.987Z,7.20
2023-02-15T02:33:10.082Z,7.18
2023-02-15T02:35:46.697Z,7.03
2023-02-15T02:38:25.670Z,6.85
2023-02-15T02:41:02.599Z,7.05
2023-02-15T02:43:36.754Z,6.63
2023-02-15T02:46:12.228Z,7.20
2023-02-15T02:48:41.891Z,7.15
2023-02-15T02:51:10.058Z,7.47
2023-02-15T02:53:38.527Z,6.80
2023-02-15T02:56:13.791Z,7.00
2023-02-15T02:58:47.192Z,7.50
2023-02-15T03:01:19.966Z,7.07
2023-02-15T03:03:57.887Z,7.43
2023-02-15T03:06:33.747Z,7.45
2023-02-15T03:09:08.865Z,7.82
2023-02-15T03:11:37.247Z,7.07
2023-02-15T03:14:05.495Z,7.45
2023-02-15T03:16:35.101Z,7.60
2023-02-15T03:19:10.661Z,7.50
2023-02-15T03:21:43.915Z,8.05
2023-02-15T03:24:16.438Z,7.53
2023-02-15T03:26:49.193Z,7.35
2023-02-15T03:29:21.321Z,7.72
2023-02-15T03:31:57.583Z,8.07
2023-02-15T03:34:27.877Z,7.43
2023-02-15T03:37:02.419Z,7.40
2023-02-15T03:39:35.695Z,7.80
2023-02-15T03:42:12.032Z,7.38
2023-02-15T03:44:48.904Z,7.75
2023-02-15T03:47:20.339Z,7.68
2023-02-15T03:49:54.107Z,7.50
2023-02-15T03:52:25.246Z,7.53
2023-02-15T03:54:54.269Z,7.88
2023-02-15T03:57:41.973Z,7.35
2023-02-15T04:00:33.409Z,7.70
2023-02-15T04:03:13.131Z,7.90
2023-02-15T04:05:43.701Z,7.70
2023-02-15T04:08:12.868Z,7.60
2023-02-15T04:10:57.125Z,7.53
2023-02-15T04:13:33.782Z,7.20
2023-02-15T04:16:07.993Z,7.45
2023-02-15T04:18:58.163Z,7.88
2023-02-15T04:21:46.880Z,7.15
2023-02-15T04:24:33.950Z,7.30
2023-02-15T04:27:03.385Z,7.63
2023-02-15T04:29:32.164Z,7.78
2023-02-15T04:32:02.024Z,7.68
2023-02-15T04:34:30.411Z,7.28
2023-02-15T04:37:00.055Z,7.40
2023-02-15T04:39:28.278Z,7.55
2023-02-15T04:41:56.661Z,7.88
2023-02-15T04:44:24.814Z,8.13
2023-02-15T04:46:53.106Z,7.78
2023-02-15T04:49:21.292Z,7.05
2023-02-15T04:51:49.581Z,7.63
2023-02-15T04:54:19.207Z,7.85
2023-02-15T04:56:47.457Z,7.80
2023-02-15T04:59:15.967Z,8.55
2023-02-15T05:01:44.154Z,7.72
2023-02-15T05:04:12.713Z,8.32
2023-02-15T05:06:40.953Z,7.88
2023-02-15T05:09:09.198Z,7.53
2023-02-15T05:11:38.853Z,8.32
2023-02-15T05:14:07.269Z,8.27
2023-02-15T05:16:35.881Z,7.72
2023-02-15T05:19:04.336Z,8.38
2023-02-15T05:21:33.209Z,7.82
2023-02-15T05:24:01.490Z,7.68
2023-02-15T05:26:47.105Z,8.07
2023-02-15T05:29:16.797Z,8.55
2023-02-15T05:31:48.376Z,8.23
2023-02-15T05:34:16.817Z,8.02
2023-02-15T05:37:01.633Z,8.27
2023-02-15T05:39:29.867Z,7.82
2023-02-15T05:42:01.017Z,7.47
2023-02-15T05:44:30.648Z,8.40
2023-02-15T05:46:58.944Z,8.38
2023-02-15T05:49:27.258Z,8.52
2023-02-15T05:51:55.459Z,8.02
2023-02-15T05:54:23.705Z,8.35
2023-02-15T05:56:51.993Z,7.82
2023-02-15T05:59:20.221Z,8.65
2023-02-15T06:01:49.743Z,8.30
2023-02-15T06:04:18.039Z,8.60
2023-02-15T06:06:46.442Z,9.05
2023-02-15T06:09:15.137Z,8.60
2023-02-15T06:11:43.379Z,9.48
2023-02-15T06:14:11.655Z,8.68
2023-02-15T06:16:39.858Z,8.77
2023-02-15T06:19:09.619Z,9.20
2023-02-15T06:21:37.960Z,8.50
2023-02-15T06:24:06.579Z,8.70
2023-02-15T06:26:34.836Z,8.10
2023-02-15T06:29:03.272Z,8.63
2023-02-15T06:31:31.553Z,8.43
2023-02-15T06:34:02.083Z,7.82
2023-02-15T06:36:32.830Z,8.00
2023-02-15T06:39:01.105Z,8.50
2023-02-15T06:41:29.323Z,8.27
2023-02-15T06:43:57.525Z,8.20
2023-02-15T06:46:26.153Z,8.02
2023-02-15T06:48:54.437Z,8.07
2023-02-15T06:51:22.671Z,8.23
2023-02-15T06:53:52.261Z,8.15
2023-02-15T06:56:20.508Z,8.98
2023-02-15T06:58:50.369Z,8.02
2023-02-15T07:01:18.847Z,8.27
2023-02-15T07:03:47.271Z,8.00
2023-02-15T07:06:15.479Z,8.10
2023-02-15T07:08:43.666Z,8.60
2023-02-15T07:11:30.659Z,8.80
2023-02-15T07:13:58.938Z,8.82
2023-02-15T07:16:27.210Z,9.38
2023-02-15T07:18:55.431Z,8.90
2023-02-15T07:21:23.608Z,8.15
2023-02-15T07:23:51.940Z,9.27
2023-02-15T07:26:21.489Z,9.10
2023-02-15T07:28:49.791Z,8.13
2023-02-15T07:31:18.089Z,8.70
2023-02-15T07:33:46.456Z,8.65
2023-02-15T07:36:14.787Z,8.85
2023-02-15T07:38:44.190Z,9.07
2023-02-15T07:41:16.199Z,9.30
2023-02-15T07:43:47.040Z,9.18
2023-02-15T07:46:17.449Z,9.93
2023-02-15T07:48:46.595Z,9.90
2023-02-15T07:51:16.838Z,9.43
2023-02-15T07:53:45.367Z,9.73
2023-02-15T07:56:15.475Z,9.77
2023-02-15T07:58:55.006Z,10.15
2023-02-15T08:01:26.192Z,10.57
2023-02-15T08:03:55.464Z,9.90
2023-02-15T08:06:24.935Z,10.18
2023-02-15T08:08:53.128Z,9.50
2023-02-15T08:11:33.698Z,10.43
2023-02-15T08:14:05.473Z,9.63
2023-02-15T08:16:36.620Z,9.95
2023-02-15T08:19:07.023Z,9.68
2023-02-15T08:21:36.902Z,10.27
2023-02-15T08:24:06.410Z,9.75
2023-02-15T08:26:35.520Z,9.88
2023-02-15T08:29:05.840Z,10.45
2023-02-15T08:31:34.518Z,9.70
2023-02-15T08:34:02.950Z,10.13
2023-02-15T08:36:32.831Z,10.32
2023-02-15T08:39:03.178Z,9.50
2023-02-15T08:41:32.788Z,10.55
2023-02-15T08:44:02.859Z,10.15
2023-02-15T08:46:34.359Z,11.30
2023-02-15T08:51:33.597Z,9.98
2023-02-15T08:54:04.141Z,10.38
2023-02-15T08:56:34.843Z,10.03
2023-02-15T08:59:03.657Z,10.67
2023-02-15T09:01:34.893Z,10.85
2023-02-15T09:04:06.326Z,10.52
2023-02-15T09:06:35.160Z,10.73
2023-02-15T09:09:04.742Z,12.52
2023-02-15T09:11:36.175Z,11.13
2023-02-15T09:16:37.797Z,11.20
2023-02-15T09:19:06.927Z,11.63
2023-02-15T09:21:37.067Z,11.13
2023-02-15T09:24:09.963Z,11.52
2023-02-15T09:26:41.387Z,10.95
2023-02-15T09:29:10.478Z,11.05
2023-02-15T09:31:45.194Z,11.43
2023-02-15T09:34:14.764Z,11.00
2023-02-15T09:36:43.474Z,11.52
2023-02-15T09:39:14.486Z,11.48
2023-02-15T09:42:05.113Z,11.68
2023-02-15T09:44:48.001Z,12.15
2023-02-15T09:47:36.105Z,11.45
2023-02-15T09:50:14.136Z,11.25
2023-02-15T09:52:58.398Z,11.13
2023-02-15T09:55:50.369Z,11.73
2023-02-15T09:58:26.796Z,11.38
2023-02-15T10:01:03.151Z,10.70
2023-02-15T10:03:46.754Z,10.93
2023-02-15T10:06:34.016Z,11.00
2023-02-15T10:09:28.274Z,11.40
2023-02-15T10:12:15.044Z,12.45
2023-02-15T10:15:22.018Z,12.13
2023-02-15T10:18:03.700Z,11.65
2023-02-15T10:23:25.717Z,11.10
2023-02-15T10:26:03.544Z,11.82
2023-02-15T10:28:41.789Z,11.60
2023-02-15T10:31:14.990Z,11.10
2023-02-15T10:33:45.252Z,11.55
2023-02-15T10:36:29.766Z,11.27
2023-02-15T10:39:04.764Z,10.90
2023-02-15T10:41:42.061Z,11.52
2023-02-15T10:44:26.234Z,11.60
2023-02-15T10:47:11.443Z,12.10
2023-02-15T10:50:16.652Z,11.50
2023-02-15T10:53:00.074Z,11.90
2023-02-15T10:55:36.617Z,11.60
2023-02-15T10:58:12.993Z,11.23
2023-02-15T11:00:47.805Z,11.25
2023-02-15T11:03:38.891Z,12.38
2023-02-15T11:06:11.342Z,12.98
2023-02-15T11:08:45.442Z,14.32
2023-02-15T11:11:18.006Z,13.50
2023-02-15T11:13:52.453Z,13.00
2023-02-15T11:16:26.445Z,13.95
2023-02-15T11:18:59.415Z,14.30
2023-02-15T11:21:33.465Z,14.07
2023-02-15T11:24:03.389Z,12.93
2023-02-15T11:26:36.018Z,13.60
2023-02-15T11:29:12.800Z,14.73
2023-02-15T11:31:46.805Z,15.20
2023-02-15T11:34:23.894Z,13.40
2023-02-15T11:36:54.827Z,12.75
2023-02-15T11:39:27.560Z,15.52
2023-02-15T11:41:59.088Z,14.45
2023-02-15T11:46:57.103Z,13.93
2023-02-15T11:49:29.090Z,14.52
2023-02-15T11:51:58.965Z,14.25
2023-02-15T11:54:33.199Z,13.65
2023-02-15T11:57:08.312Z,13.77
2023-02-15T11:59:39.851Z,14.25
2023-02-15T12:04:51.918Z,13.57
2023-02-15T12:07:26.592Z,14.02
2023-02-15T12:10:05.260Z,14.70
2023-02-15T12:12:35.217Z,14.75
2023-02-15T12:15:06.043Z,15.60
2023-02-15T12:17:36.505Z,15.63
2023-02-15T12:20:08.325Z,15.15
2023-02-15T12:22:39.442Z,15.20
2023-02-15T12:25:24.752Z,14.88
2023-02-15T12:27:53.283Z,15.38
2023-02-15T12:30:25.133Z,15.73
2023-02-15T12:32:56.550Z,15.95
2023-02-15T12:35:32.815Z,15.95
2023-02-15T12:38:06.812Z,15.70
2023-02-15T12:40:36.744Z,16.80
2023-02-15T12:43:09.557Z,15.18
2023-02-15T12:45:39.739Z,14.93
2023-02-15T12:48:16.949Z,15.32
2023-02-15T12:50:45.837Z,15.77
2023-02-15T12:53:20.039Z,15.38
2023-02-15T12:55:58.021Z,14.50
2023-02-15T12:58:27.384Z,15.65
2023-02-15T13:01:13.065Z,15.02
2023-02-15T13:03:56.655Z,15.35
2023-02-15T13:06:24.990Z,14.43
2023-02-15T13:08:55.691Z,14.93
2023-02-15T13:11:35.162Z,15.10
2023-02-15T13:14:06.047Z,15.88
2023-02-15T13:16:36.723Z,16.00
2023-02-15T13:19:09.599Z,14.95
2023-02-15T13:21:41.820Z,14.45
2023-02-15T13:24:19.900Z,14.45
2023-02-15T13:26:50.359Z,14.88
2023-02-15T13:29:24.323Z,14.38
2023-02-15T13:31:54.595Z,14.15
2023-02-15T13:34:27.826Z,13.88
2023-02-15T13:37:05.012Z,13.10
2023-02-15T13:39:40.537Z,14.88
2023-02-15T13:42:22.440Z,13.20
2023-02-15T13:45:24.512Z,13.75
2023-02-15T13:48:01.698Z,13.45
2023-02-15T13:50:51.490Z,13.35
2023-02-15T13:53:50.530Z,12.43
2023-02-15T13:56:29.522Z,13.98
2023-02-15T13:59:15.572Z,13.13
2023-02-15T14:01:48.166Z,12.77
2023-02-15T14:04:46.556Z,12.63
2023-02-15T14:07:35.722Z,13.27
2023-02-15T14:10:27.995Z,12.32
2023-02-15T14:13:12.573Z,12.45
2023-02-15T14:15:48.690Z,13.07
2023-02-15T14:18:26.394Z,12.45
2023-02-15T14:21:06.312Z,12.07
2023-02-15T14:23:45.974Z,12.23
2023-02-15T14:26:20.934Z,12.07
2023-02-15T14:28:59.040Z,13.25
2023-02-15T14:31:35.433Z,12.80
2023-02-15T14:34:05.064Z,12.95
2023-02-15T14:36:34.231Z,12.90
2023-02-15T14:39:34.930Z,12.57
2023-02-15T14:42:10.802Z,11.90
2023-02-15T14:44:43.027Z,12.77
2023-02-15T14:47:19.515Z,12.30
2023-02-15T14:49:47.819Z,12.63
2023-02-15T14:52:15.999Z,13.10
2023-02-15T14:55:01.034Z,11.57
2023-02-15T14:57:35.058Z,13.27
2023-02-15T15:00:33.683Z,12.88
2023-02-15T15:03:03.524Z,12.23
2023-02-15T15:05:36.569Z,11.38
2023-02-15T15:08:06.898Z,12.27
2023-02-15T15:10:48.338Z,12.02
2023-02-15T15:13:53.698Z,12.18
2023-02-15T15:16:33.121Z,13.30
2023-02-15T15:19:04.260Z,12.18
2023-02-15T15:21:55.369Z,12.95
2023-02-15T15:24:53.185Z,12.38
2023-02-15T15:27:40.869Z,12.07
2023-02-15T15:30:44.643Z,13.05
2023-02-15T15:33:42.603Z,11.57
2023-02-15T15:36:55.678Z,12.63
2023-02-15T15:39:45.604Z,17.67
2023-02-15T15:42:23.756Z,15.13
2023-02-15T15:45:15.796Z,15.07
2023-02-15T15:48:07.091Z,13.20
2023-02-15T15:50:36.153Z,14.32
2023-02-15T15:53:07.549Z,13.15
2023-02-15T15:55:36.586Z,13.43
2023-02-15T15:58:07.824Z,13.55
2023-02-15T16:00:42.713Z,13.27
2023-02-15T16:03:17.725Z,13.52
2023-02-15T16:05:45.940Z,12.90
2023-02-15T16:08:16.619Z,12.82
2023-02-15T16:10:44.865Z,12.73
2023-02-15T16:13:15.874Z,12.82
2023-02-15T16:15:50.448Z,13.52
2023-02-15T16:18:20.767Z,13.32
2023-02-15T16:20:54.518Z,12.80
2023-02-15T16:23:50.970Z,13.70
2023-02-15T16:26:31.992Z,14.15
2023-02-15T16:29:02.420Z,13.73
2023-02-15T16:31:30.804Z,13.27
2023-02-15T16:33:59.215Z,13.52
2023-02-15T16:36:28.772Z,13.15
2023-02-15T16:39:19.238Z,13.20
2023-02-15T16:41:49.376Z,13.50
2023-02-15T16:44:21.375Z,13.07
2023-02-15T16:46:55.015Z,12.27
2023-02-15T16:49:25.202Z,12.82
2023-02-15T16:51:59.034Z,13.38
2023-02-15T16:54:32.216Z,12.98
2023-02-15T16:57:00.855Z,13.10
2023-02-15T16:59:36.090Z,12.90
2023-02-15T17:02:08.155Z,13.80
2023-02-15T17:04:38.990Z,13.50
2023-02-15T17:07:15.967Z,14.38
2023-02-15T17:09:54.755Z,13.27
2023-02-15T17:12:46.407Z,14.35
2023-02-15T17:15:27.521Z,13.52
2023-02-15T17:17:59.424Z,13.93
2023-02-15T17:20:28.066Z,13.60
2023-02-15T17:22:56.862Z,13.13
2023-02-15T17:25:34.592Z,14.55
2023-02-15T17:28:03.013Z,14.00
2023-02-15T17:30:34.413Z,13.80
2023-02-15T17:33:05.500Z,15.48
2023-02-15T17:35:34.992Z,17.58
2023-02-15T17:38:06.458Z,19.67
2023-02-15T17:40:38.213Z,21.52
2023-02-15T17:43:06.391Z,19.63
2023-02-15T17:45:37.388Z,18.83
2023-02-15T17:48:07.803Z,15.82
2023-02-15T17:50:37.396Z,15.43
2023-02-15T17:53:06.965Z,15.75
2023-02-15T17:55:35.755Z,15.73
2023-02-15T17:58:06.152Z,14.93
2023-02-15T18:00:56.190Z,17.02
2023-02-15T18:03:42.885Z,33.45
2023-02-15T18:06:32.398Z,104.70
2023-02-15T18:09:17.975Z,103.43
2023-02-15T18:11:49.815Z,92.38
2023-02-15T18:14:18.077Z,113.90
2023-02-15T18:16:46.430Z,95.85
2023-02-15T18:19:19.805Z,80.68
2023-02-15T18:21:48.753Z,63.00
2023-02-15T18:24:20.388Z,53.88
2023-02-15T18:26:50.176Z,74.43
2023-02-15T18:29:18.408Z,119.40
2023-02-15T18:31:48.897Z,86.43
2023-02-15T18:34:24.794Z,103.18
2023-02-15T18:36:54.039Z,92.10
2023-02-15T18:39:28.005Z,64.25
2023-02-15T18:41:57.742Z,56.00
2023-02-15T18:44:27.702Z,76.43
2023-02-15T18:46:56.081Z,69.65
2023-02-15T18:49:26.953Z,86.50
2023-02-15T18:51:55.413Z,138.10
2023-02-15T18:54:25.762Z,161.30
2023-02-15T18:56:58.473Z,115.80
2023-02-15T18:59:30.409Z,99.93
2023-02-15T19:02:00.319Z,75.15
2023-02-15T19:04:28.603Z,60.30
2023-02-15T19:06:56.820Z,51.95
2023-02-15T19:09:26.251Z,48.92
2023-02-15T19:11:57.460Z,46.45
2023-02-15T19:14:28.385Z,43.13
2023-02-15T19:16:56.716Z,40.33
2023-02-15T19:19:25.398Z,38.58
2023-02-15T19:21:54.390Z,36.67
2023-02-15T19:24:25.309Z,29.77
2023-02-15T19:26:53.841Z,25.20
2023-02-15T19:29:27.142Z,21.88
2023-02-15T19:31:55.475Z,21.00
2023-02-15T19:34:23.740Z,21.45
2023-02-15T19:36:54.491Z,21.52
2023-02-15T19:39:28.984Z,22.00
2023-02-15T19:41:57.646Z,20.20
2023-02-15T19:44:27.237Z,19.70
2023-02-15T19:46:55.709Z,18.05
2023-02-15T19:49:23.947Z,16.60
2023-02-15T19:51:52.209Z,15.45
2023-02-15T19:54:32.193Z,16.08
2023-02-15T19:57:01.387Z,16.58
2023-02-15T19:59:34.016Z,16.48
2023-02-15T20:02:02.389Z,16.35
2023-02-15T20:04:30.599Z,15.88
2023-02-15T20:07:02.323Z,15.90
2023-02-15T20:09:33.773Z,14.95
2023-02-15T20:12:02.261Z,16.02
2023-02-15T20:14:32.011Z,15.13
2023-02-15T20:17:00.303Z,14.98
2023-02-15T20:19:28.457Z,15.13
2023-02-15T20:21:57.731Z,14.55
2023-02-15T20:24:28.630Z,14.60
2023-02-15T20:26:56.994Z,14.88
2023-02-15T20:29:25.150Z,14.13
2023-02-15T20:31:55.711Z,14.55
2023-02-15T20:34:24.599Z,14.03
2023-02-15T20:36:53.187Z,14.77
2023-02-15T20:39:21.581Z,13.93
2023-02-15T20:41:49.792Z,15.57
2023-02-15T20:44:24.494Z,17.20
2023-02-15T20:46:56.100Z,17.90
2023-02-15T20:51:54.362Z,19.08
2023-02-15T20:54:26.198Z,19.67
2023-02-15T20:56:55.331Z,19.23
2023-02-15T20:59:26.227Z,18.13
2023-02-15T21:02:00.711Z,16.92
2023-02-15T21:04:32.369Z,15.63
2023-02-15T21:09:29.321Z,14.80
2023-02-15T21:12:02.659Z,14.70
2023-02-15T21:14:30.999Z,13.88
2023-02-15T21:17:01.178Z,15.50
2023-02-15T21:19:29.375Z,14.90
2023-02-15T21:21:58.025Z,14.77
2023-02-15T21:24:29.105Z,14.35
2023-02-15T21:26:59.811Z,15.88
2023-02-15T21:29:29.633Z,15.17
2023-02-15T21:32:00.644Z,14.43
2023-02-15T21:34:30.407Z,15.73
2023-02-15T21:36:58.627Z,15.30
2023-02-15T21:39:37.256Z,14.20
2023-02-15T21:42:28.923Z,14.10
2023-02-15T21:45:15.239Z,15.20
2023-02-15T21:47:52.177Z,14.40
2023-02-15T21:50:42.181Z,13.88
2023-02-15T21:53:13.863Z,13.82
2023-02-15T21:55:42.472Z,14.57
2023-02-15T21:58:20.837Z,13.52
2023-02-15T22:00:50.380Z,14.13
2023-02-15T22:03:18.621Z,13.43
2023-02-15T22:05:48.182Z,13.18
2023-02-15T22:08:16.881Z,13.82
2023-02-15T22:10:46.036Z,13.23
2023-02-15T22:13:16.579Z,13.30
2023-02-15T22:15:47.521Z,12.50
2023-02-15T22:18:24.253Z,12.23
2023-02-15T22:20:54.435Z,11.60
2023-02-15T22:23:22.916Z,12.50
2023-02-15T22:25:55.772Z,37.97
2023-02-15T22:28:28.786Z,92.30
2023-02-15T22:30:57.037Z,71.38
2023-02-15T22:33:28.714Z,67.07
2023-02-15T22:35:58.578Z,65.65
2023-02-15T22:38:27.272Z,44.30
2023-02-15T22:40:58.062Z,49.42
2023-02-15T22:43:35.288Z,71.85
2023-02-15T22:46:06.440Z,65.40
2023-02-15T22:48:35.484Z,69.05
2023-02-15T22:51:05.590Z,77.57
2023-02-15T22:53:33.950Z,52.28
2023-02-15T22:56:06.904Z,64.00
2023-02-15T22:58:35.926Z,82.25
2023-02-15T23:01:04.770Z,119.88
2023-02-15T23:03:33.998Z,119.07
2023-02-15T23:06:02.244Z,114.85
2023-02-15T23:08:31.827Z,92.07
2023-02-15T23:11:00.062Z,70.38
2023-02-15T23:13:32.265Z,48.67
2023-02-15T23:16:02.793Z,33.95
2023-02-15T23:18:34.106Z,26.10
2023-02-15T23:21:05.316Z,20.08
2023-02-15T23:23:38.076Z,16.80
2023-02-15T23:26:16.273Z,15.27
2023-02-15T23:28:45.060Z,14.55
2023-02-15T23:31:18.861Z,13.85
2023-02-15T23:33:47.323Z,13.55
2023-02-15T23:36:26.348Z,14.20
2023-02-15T23:38:56.509Z,13.73
2023-02-15T23:41:26.088Z,13.77
2023-02-15T23:43:57.047Z,12.95
2023-02-15T23:46:33.342Z,13.55
2023-02-15T23:49:01.596Z,13.20
2023-02-15T23:51:32.216Z,12.73
2023-02-15T23:54:01.854Z,13.63
2023-02-15T23:56:30.187Z,12.27
2023-02-15T23:58:58.475Z,12.15
